sensor_id;sensor_type;location;lat;lon;timestamp;P1;durP1;ratioP1;P2;durP2;ratioP2
8040;SDS011;4063;48.140;10.250;2022-07-23T00:01:18;11.98;;;8.57;;
8040;SDS011;4063;48.140;10.250;2022-07-23T00:03:44;9.40;;;8.57;;
8040;SDS011;4063;48.140;10.250;2022-07-23T00:06:10;10.00;;;9.10;;
8040;SDS011;4063;48.140;10.250;2022-07-23T00:08:36;11.85;;;9.70;;
8040;SDS011;4063;48.140;10.250;2022-07-23T00:11:02;12.07;;;10.85;;
8040;SDS011;4063;48.140;10.250;2022-07-23T00:13:28;11.43;;;10.32;;
8040;SDS011;4063;48.140;10.250;2022-07-23T00:15:54;13.82;;;11.02;;
8040;SDS011;4063;48.140;10.250;2022-07-23T00:18:20;13.20;;;10.43;;
8040;SDS011;4063;48.140;10.250;2022-07-23T00:20:46;12.80;;;10.48;;
8040;SDS011;4063;48.140;10.250;2022-07-23T00:23:12;12.15;;;10.55;;
8040;SDS011;4063;48.140;10.250;2022-07-23T00:25:38;12.00;;;10.75;;
8040;SDS011;4063;48.140;10.250;2022-07-23T00:28:04;10.60;;;9.50;;
8040;SDS011;4063;48.140;10.250;2022-07-23T00:30:30;10.85;;;9.85;;
8040;SDS011;4063;48.140;10.250;2022-07-23T00:32:58;10.30;;;9.30;;
8040;SDS011;4063;48.140;10.250;2022-07-23T00:35:25;11.68;;;10.25;;
8040;SDS011;4063;48.140;10.250;2022-07-23T00:37:51;12.13;;;10.93;;
8040;SDS011;4063;48.140;10.250;2022-07-23T00:40:17;11.38;;;10.25;;
8040;SDS011;4063;48.140;10.250;2022-07-23T00:42:43;12.77;;;10.80;;
8040;SDS011;4063;48.140;10.250;2022-07-23T00:45:09;13.25;;;11.30;;
8040;SDS011;4063;48.140;10.250;2022-07-23T00:47:35;12.52;;;10.90;;
8040;SDS011;4063;48.140;10.250;2022-07-23T00:50:03;15.27;;;11.32;;
8040;SDS011;4063;48.140;10.250;2022-07-23T00:52:29;12.02;;;10.93;;
8040;SDS011;4063;48.140;10.250;2022-07-23T00:54:55;16.27;;;12.05;;
8040;SDS011;4063;48.140;10.250;2022-07-23T00:57:21;11.57;;;10.30;;
8040;SDS011;4063;48.140;10.250;2022-07-23T00:59:47;12.05;;;10.27;;
8040;SDS011;4063;48.140;10.250;2022-07-23T01:02:13;13.00;;;11.00;;
8040;SDS011;4063;48.140;10.250;2022-07-23T01:04:39;11.82;;;10.73;;
8040;SDS011;4063;48.140;10.250;2022-07-23T01:07:05;12.05;;;10.95;;
8040;SDS011;4063;48.140;10.250;2022-07-23T01:09:31;11.98;;;10.88;;
8040;SDS011;4063;48.140;10.250;2022-07-23T01:11:57;16.27;;;11.57;;
8040;SDS011;4063;48.140;10.250;2022-07-23T01:14:24;12.63;;;11.45;;
8040;SDS011;4063;48.140;10.250;2022-07-23T01:16:50;17.42;;;11.48;;
8040;SDS011;4063;48.140;10.250;2022-07-23T01:19:17;14.43;;;11.02;;
8040;SDS011;4063;48.140;10.250;2022-07-23T01:21:44;13.35;;;11.95;;
8040;SDS011;4063;48.140;10.250;2022-07-23T01:24:12;14.10;;;12.60;;
8040;SDS011;4063;48.140;10.250;2022-07-23T01:26:38;14.05;;;12.75;;
8040;SDS011;4063;48.140;10.250;2022-07-23T01:29:04;14.60;;;13.10;;
8040;SDS011;4063;48.140;10.250;2022-07-23T01:31:31;14.98;;;13.57;;
8040;SDS011;4063;48.140;10.250;2022-07-23T01:33:57;14.90;;;13.38;;
8040;SDS011;4063;48.140;10.250;2022-07-23T01:36:23;13.85;;;12.13;;
8040;SDS011;4063;48.140;10.250;2022-07-23T01:38:49;13.75;;;12.43;;
8040;SDS011;4063;48.140;10.250;2022-07-23T01:41:15;23.38;;;17.35;;
8040;SDS011;4063;48.140;10.250;2022-07-23T01:43:41;13.38;;;12.07;;
8040;SDS011;4063;48.140;10.250;2022-07-23T01:46:07;15.77;;;10.90;;
8040;SDS011;4063;48.140;10.250;2022-07-23T01:48:33;11.90;;;10.75;;
8040;SDS011;4063;48.140;10.250;2022-07-23T01:50:59;10.65;;;9.73;;
8040;SDS011;4063;48.140;10.250;2022-07-23T01:53:25;16.67;;;10.73;;
8040;SDS011;4063;48.140;10.250;2022-07-23T01:55:51;11.82;;;10.63;;
8040;SDS011;4063;48.140;10.250;2022-07-23T01:58:17;12.45;;;11.18;;
8040;SDS011;4063;48.140;10.250;2022-07-23T02:00:43;13.45;;;11.70;;
8040;SDS011;4063;48.140;10.250;2022-07-23T02:03:09;12.50;;;11.27;;
8040;SDS011;4063;48.140;10.250;2022-07-23T02:05:35;13.00;;;11.70;;
8040;SDS011;4063;48.140;10.250;2022-07-23T02:08:01;13.80;;;11.23;;
8040;SDS011;4063;48.140;10.250;2022-07-23T02:10:27;12.90;;;11.10;;
8040;SDS011;4063;48.140;10.250;2022-07-23T02:12:53;12.23;;;11.15;;
8040;SDS011;4063;48.140;10.250;2022-07-23T02:15:19;11.35;;;10.32;;
8040;SDS011;4063;48.140;10.250;2022-07-23T02:17:45;14.13;;;11.05;;
8040;SDS011;4063;48.140;10.250;2022-07-23T02:20:11;11.55;;;10.48;;
8040;SDS011;4063;48.140;10.250;2022-07-23T02:22:38;11.38;;;10.40;;
8040;SDS011;4063;48.140;10.250;2022-07-23T02:25:04;10.98;;;9.88;;
8040;SDS011;4063;48.140;10.250;2022-07-23T02:27:31;12.32;;;11.15;;
8040;SDS011;4063;48.140;10.250;2022-07-23T02:29:57;10.95;;;10.00;;
8040;SDS011;4063;48.140;10.250;2022-07-23T02:32:23;13.75;;;10.68;;
8040;SDS011;4063;48.140;10.250;2022-07-23T02:34:50;11.02;;;9.43;;
8040;SDS011;4063;48.140;10.250;2022-07-23T02:37:16;10.63;;;9.73;;
8040;SDS011;4063;48.140;10.250;2022-07-23T02:39:42;10.73;;;9.73;;
8040;SDS011;4063;48.140;10.250;2022-07-23T02:42:08;10.70;;;9.73;;
8040;SDS011;4063;48.140;10.250;2022-07-23T02:44:34;10.63;;;9.70;;
8040;SDS011;4063;48.140;10.250;2022-07-23T02:47:00;9.57;;;8.75;;
8040;SDS011;4063;48.140;10.250;2022-07-23T02:49:26;9.93;;;8.82;;
8040;SDS011;4063;48.140;10.250;2022-07-23T02:51:52;9.85;;;8.95;;
8040;SDS011;4063;48.140;10.250;2022-07-23T02:54:18;9.90;;;9.05;;
8040;SDS011;4063;48.140;10.250;2022-07-23T02:56:45;9.35;;;8.40;;
8040;SDS011;4063;48.140;10.250;2022-07-23T02:59:11;9.75;;;8.82;;
8040;SDS011;4063;48.140;10.250;2022-07-23T03:01:37;9.93;;;9.02;;
8040;SDS011;4063;48.140;10.250;2022-07-23T03:04:03;10.32;;;9.43;;
8040;SDS011;4063;48.140;10.250;2022-07-23T03:06:29;9.48;;;8.57;;
8040;SDS011;4063;48.140;10.250;2022-07-23T03:08:55;9.77;;;8.85;;
8040;SDS011;4063;48.140;10.250;2022-07-23T03:11:21;14.35;;;8.82;;
8040;SDS011;4063;48.140;10.250;2022-07-23T03:13:47;9.73;;;8.82;;
8040;SDS011;4063;48.140;10.250;2022-07-23T03:16:13;9.55;;;8.75;;
8040;SDS011;4063;48.140;10.250;2022-07-23T03:18:39;11.10;;;8.70;;
8040;SDS011;4063;48.140;10.250;2022-07-23T03:21:05;9.68;;;8.07;;
8040;SDS011;4063;48.140;10.250;2022-07-23T03:23:31;9.48;;;8.15;;
8040;SDS011;4063;48.140;10.250;2022-07-23T03:25:57;9.60;;;8.35;;
8040;SDS011;4063;48.140;10.250;2022-07-23T03:28:23;11.15;;;8.90;;
8040;SDS011;4063;48.140;10.250;2022-07-23T03:30:49;8.95;;;8.15;;
8040;SDS011;4063;48.140;10.250;2022-07-23T03:33:16;9.25;;;8.45;;
8040;SDS011;4063;48.140;10.250;2022-07-23T03:35:43;14.02;;;8.52;;
8040;SDS011;4063;48.140;10.250;2022-07-23T03:38:09;9.05;;;8.25;;
8040;SDS011;4063;48.140;10.250;2022-07-23T03:40:35;10.75;;;8.30;;
8040;SDS011;4063;48.140;10.250;2022-07-23T03:43:01;9.38;;;8.57;;
8040;SDS011;4063;48.140;10.250;2022-07-23T03:45:27;9.52;;;8.13;;
8040;SDS011;4063;48.140;10.250;2022-07-23T03:47:53;9.70;;;8.45;;
8040;SDS011;4063;48.140;10.250;2022-07-23T03:50:19;8.70;;;8.00;;
8040;SDS011;4063;48.140;10.250;2022-07-23T03:52:45;9.10;;;8.20;;
8040;SDS011;4063;48.140;10.250;2022-07-23T03:55:11;9.57;;;8.60;;
8040;SDS011;4063;48.140;10.250;2022-07-23T03:57:38;9.35;;;8.55;;
8040;SDS011;4063;48.140;10.250;2022-07-23T04:00:04;9.25;;;8.45;;
8040;SDS011;4063;48.140;10.250;2022-07-23T04:02:31;9.40;;;8.52;;
8040;SDS011;4063;48.140;10.250;2022-07-23T04:04:57;9.20;;;8.43;;
8040;SDS011;4063;48.140;10.250;2022-07-23T04:07:25;8.57;;;7.78;;
8040;SDS011;4063;48.140;10.250;2022-07-23T04:09:51;10.68;;;8.05;;
8040;SDS011;4063;48.140;10.250;2022-07-23T04:12:18;9.73;;;8.30;;
8040;SDS011;4063;48.140;10.250;2022-07-23T04:14:44;9.80;;;8.88;;
8040;SDS011;4063;48.140;10.250;2022-07-23T04:17:10;12.00;;;9.30;;
8040;SDS011;4063;48.140;10.250;2022-07-23T04:19:36;9.73;;;8.82;;
8040;SDS011;4063;48.140;10.250;2022-07-23T04:22:06;9.38;;;8.43;;
8040;SDS011;4063;48.140;10.250;2022-07-23T04:24:32;8.68;;;7.97;;
8040;SDS011;4063;48.140;10.250;2022-07-23T04:26:58;9.98;;;8.98;;
8040;SDS011;4063;48.140;10.250;2022-07-23T04:29:24;9.48;;;8.65;;
8040;SDS011;4063;48.140;10.250;2022-07-23T04:31:50;8.95;;;8.15;;
8040;SDS011;4063;48.140;10.250;2022-07-23T04:34:16;8.50;;;7.80;;
8040;SDS011;4063;48.140;10.250;2022-07-23T04:36:42;9.10;;;8.23;;
8040;SDS011;4063;48.140;10.250;2022-07-23T04:39:08;9.05;;;8.27;;
8040;SDS011;4063;48.140;10.250;2022-07-23T04:41:34;9.00;;;8.13;;
8040;SDS011;4063;48.140;10.250;2022-07-23T04:44:01;10.10;;;7.78;;
8040;SDS011;4063;48.140;10.250;2022-07-23T04:46:27;8.90;;;8.20;;
8040;SDS011;4063;48.140;10.250;2022-07-23T04:48:53;9.65;;;8.75;;
8040;SDS011;4063;48.140;10.250;2022-07-23T04:51:19;9.10;;;8.20;;
8040;SDS011;4063;48.140;10.250;2022-07-23T04:53:45;10.15;;;9.25;;
8040;SDS011;4063;48.140;10.250;2022-07-23T04:56:11;8.75;;;7.93;;
8040;SDS011;4063;48.140;10.250;2022-07-23T04:58:37;8.90;;;8.15;;
8040;SDS011;4063;48.140;10.250;2022-07-23T05:01:03;9.13;;;8.23;;
8040;SDS011;4063;48.140;10.250;2022-07-23T05:03:29;9.88;;;8.88;;
8040;SDS011;4063;48.140;10.250;2022-07-23T05:05:55;9.35;;;8.25;;
8040;SDS011;4063;48.140;10.250;2022-07-23T05:08:21;9.10;;;8.40;;
8040;SDS011;4063;48.140;10.250;2022-07-23T05:10:47;13.60;;;9.10;;
8040;SDS011;4063;48.140;10.250;2022-07-23T05:13:16;10.88;;;9.75;;
8040;SDS011;4063;48.140;10.250;2022-07-23T05:15:43;12.70;;;10.30;;
8040;SDS011;4063;48.140;10.250;2022-07-23T05:18:09;9.68;;;8.90;;
8040;SDS011;4063;48.140;10.250;2022-07-23T05:20:35;10.32;;;9.38;;
8040;SDS011;4063;48.140;10.250;2022-07-23T05:23:01;11.35;;;9.95;;
8040;SDS011;4063;48.140;10.250;2022-07-23T05:25:27;9.80;;;8.80;;
8040;SDS011;4063;48.140;10.250;2022-07-23T05:27:53;11.82;;;9.75;;
8040;SDS011;4063;48.140;10.250;2022-07-23T05:30:19;10.60;;;9.60;;
8040;SDS011;4063;48.140;10.250;2022-07-23T05:32:45;12.70;;;10.68;;
8040;SDS011;4063;48.140;10.250;2022-07-23T05:35:11;12.48;;;11.38;;
8040;SDS011;4063;48.140;10.250;2022-07-23T05:37:37;12.95;;;11.27;;
8040;SDS011;4063;48.140;10.250;2022-07-23T05:40:04;12.40;;;10.95;;
8040;SDS011;4063;48.140;10.250;2022-07-23T05:42:34;13.32;;;11.90;;
8040;SDS011;4063;48.140;10.250;2022-07-23T05:45:00;13.23;;;10.98;;
8040;SDS011;4063;48.140;10.250;2022-07-23T05:47:26;11.48;;;10.45;;
8040;SDS011;4063;48.140;10.250;2022-07-23T05:49:52;12.60;;;11.50;;
8040;SDS011;4063;48.140;10.250;2022-07-23T05:52:18;11.82;;;10.32;;
8040;SDS011;4063;48.140;10.250;2022-07-23T05:54:44;12.32;;;11.10;;
8040;SDS011;4063;48.140;10.250;2022-07-23T05:57:10;13.25;;;12.05;;
8040;SDS011;4063;48.140;10.250;2022-07-23T05:59:36;12.02;;;10.65;;
8040;SDS011;4063;48.140;10.250;2022-07-23T06:02:02;12.05;;;10.85;;
8040;SDS011;4063;48.140;10.250;2022-07-23T06:04:28;12.43;;;11.20;;
8040;SDS011;4063;48.140;10.250;2022-07-23T06:06:54;13.52;;;11.63;;
8040;SDS011;4063;48.140;10.250;2022-07-23T06:09:20;12.30;;;11.15;;
8040;SDS011;4063;48.140;10.250;2022-07-23T06:11:46;12.63;;;11.43;;
8040;SDS011;4063;48.140;10.250;2022-07-23T06:14:12;12.23;;;11.02;;
8040;SDS011;4063;48.140;10.250;2022-07-23T06:16:37;11.52;;;10.38;;
8040;SDS011;4063;48.140;10.250;2022-07-23T06:19:04;12.45;;;10.70;;
8040;SDS011;4063;48.140;10.250;2022-07-23T06:21:30;13.10;;;10.13;;
8040;SDS011;4063;48.140;10.250;2022-07-23T06:23:56;11.70;;;10.63;;
8040;SDS011;4063;48.140;10.250;2022-07-23T06:26:22;15.13;;;11.38;;
8040;SDS011;4063;48.140;10.250;2022-07-23T06:28:48;11.65;;;10.65;;
8040;SDS011;4063;48.140;10.250;2022-07-23T06:31:14;12.25;;;11.10;;
8040;SDS011;4063;48.140;10.250;2022-07-23T06:33:40;11.90;;;10.90;;
8040;SDS011;4063;48.140;10.250;2022-07-23T06:36:06;11.95;;;10.93;;
8040;SDS011;4063;48.140;10.250;2022-07-23T06:38:32;11.95;;;10.48;;
8040;SDS011;4063;48.140;10.250;2022-07-23T06:40:58;10.95;;;9.98;;
8040;SDS011;4063;48.140;10.250;2022-07-23T06:43:24;13.02;;;10.82;;
8040;SDS011;4063;48.140;10.250;2022-07-23T06:45:50;10.68;;;9.77;;
8040;SDS011;4063;48.140;10.250;2022-07-23T06:48:16;11.10;;;10.20;;
8040;SDS011;4063;48.140;10.250;2022-07-23T06:50:42;11.52;;;10.43;;
8040;SDS011;4063;48.140;10.250;2022-07-23T06:53:08;11.60;;;10.50;;
8040;SDS011;4063;48.140;10.250;2022-07-23T06:55:34;10.63;;;9.73;;
8040;SDS011;4063;48.140;10.250;2022-07-23T06:58:03;8.88;;;8.15;;
8040;SDS011;4063;48.140;10.250;2022-07-23T07:00:29;8.05;;;6.68;;
8040;SDS011;4063;48.140;10.250;2022-07-23T07:02:56;8.07;;;7.28;;
8040;SDS011;4063;48.140;10.250;2022-07-23T07:05:22;8.07;;;7.28;;
8040;SDS011;4063;48.140;10.250;2022-07-23T07:07:50;8.23;;;7.15;;
8040;SDS011;4063;48.140;10.250;2022-07-23T07:10:16;7.45;;;6.65;;
8040;SDS011;4063;48.140;10.250;2022-07-23T07:12:43;8.75;;;7.90;;
8040;SDS011;4063;48.140;10.250;2022-07-23T07:15:09;9.98;;;9.07;;
8040;SDS011;4063;48.140;10.250;2022-07-23T07:17:35;9.60;;;8.70;;
8040;SDS011;4063;48.140;10.250;2022-07-23T07:20:01;10.25;;;9.30;;
8040;SDS011;4063;48.140;10.250;2022-07-23T07:22:27;10.25;;;9.25;;
8040;SDS011;4063;48.140;10.250;2022-07-23T07:24:53;10.43;;;9.00;;
8040;SDS011;4063;48.140;10.250;2022-07-23T07:27:19;10.02;;;9.13;;
8040;SDS011;4063;48.140;10.250;2022-07-23T07:29:45;10.52;;;9.10;;
8040;SDS011;4063;48.140;10.250;2022-07-23T07:32:11;9.30;;;8.07;;
8040;SDS011;4063;48.140;10.250;2022-07-23T07:34:37;9.30;;;8.40;;
8040;SDS011;4063;48.140;10.250;2022-07-23T07:37:03;10.30;;;9.40;;
8040;SDS011;4063;48.140;10.250;2022-07-23T07:39:29;9.68;;;8.88;;
8040;SDS011;4063;48.140;10.250;2022-07-23T07:41:55;12.52;;;10.70;;
8040;SDS011;4063;48.140;10.250;2022-07-23T07:44:21;10.88;;;9.88;;
8040;SDS011;4063;48.140;10.250;2022-07-23T07:46:47;10.13;;;9.32;;
8040;SDS011;4063;48.140;10.250;2022-07-23T07:49:13;9.73;;;8.93;;
8040;SDS011;4063;48.140;10.250;2022-07-23T07:51:39;10.18;;;8.25;;
8040;SDS011;4063;48.140;10.250;2022-07-23T07:54:05;10.20;;;8.27;;
8040;SDS011;4063;48.140;10.250;2022-07-23T07:56:31;8.40;;;7.70;;
8040;SDS011;4063;48.140;10.250;2022-07-23T07:58:57;7.97;;;7.30;;
8040;SDS011;4063;48.140;10.250;2022-07-23T08:01:23;9.15;;;7.57;;
8040;SDS011;4063;48.140;10.250;2022-07-23T08:03:49;7.75;;;7.05;;
8040;SDS011;4063;48.140;10.250;2022-07-23T08:06:15;8.55;;;7.63;;
8040;SDS011;4063;48.140;10.250;2022-07-23T08:08:41;9.25;;;7.38;;
8040;SDS011;4063;48.140;10.250;2022-07-23T08:11:07;7.88;;;7.18;;
8040;SDS011;4063;48.140;10.250;2022-07-23T08:13:33;9.98;;;6.93;;
8040;SDS011;4063;48.140;10.250;2022-07-23T08:15:59;7.80;;;7.13;;
8040;SDS011;4063;48.140;10.250;2022-07-23T08:18:26;7.80;;;7.00;;
8040;SDS011;4063;48.140;10.250;2022-07-23T08:20:52;6.97;;;6.25;;
8040;SDS011;4063;48.140;10.250;2022-07-23T08:23:18;6.95;;;6.45;;
8040;SDS011;4063;48.140;10.250;2022-07-23T08:25:44;8.13;;;7.32;;
8040;SDS011;4063;48.140;10.250;2022-07-23T08:28:11;7.57;;;6.93;;
8040;SDS011;4063;48.140;10.250;2022-07-23T08:30:38;7.70;;;7.00;;
8040;SDS011;4063;48.140;10.250;2022-07-23T08:37:59;7.72;;;7.03;;
8040;SDS011;4063;48.140;10.250;2022-07-23T08:40:25;6.95;;;6.28;;
8040;SDS011;4063;48.140;10.250;2022-07-23T08:42:52;8.55;;;5.95;;
8040;SDS011;4063;48.140;10.250;2022-07-23T08:45:18;7.10;;;6.40;;
8040;SDS011;4063;48.140;10.250;2022-07-23T08:47:46;6.68;;;6.07;;
8040;SDS011;4063;48.140;10.250;2022-07-23T08:50:13;6.68;;;6.07;;
8040;SDS011;4063;48.140;10.250;2022-07-23T08:52:39;6.50;;;5.90;;
8040;SDS011;4063;48.140;10.250;2022-07-23T08:55:06;7.75;;;6.88;;
8040;SDS011;4063;48.140;10.250;2022-07-23T08:57:32;7.13;;;6.38;;
8040;SDS011;4063;48.140;10.250;2022-07-23T08:59:58;7.50;;;6.68;;
8040;SDS011;4063;48.140;10.250;2022-07-23T09:02:24;7.78;;;6.97;;
8040;SDS011;4063;48.140;10.250;2022-07-23T09:04:50;6.55;;;5.95;;
8040;SDS011;4063;48.140;10.250;2022-07-23T09:07:16;7.47;;;6.85;;
8040;SDS011;4063;48.140;10.250;2022-07-23T09:09:42;6.88;;;6.25;;
8040;SDS011;4063;48.140;10.250;2022-07-23T09:12:09;7.13;;;6.50;;
8040;SDS011;4063;48.140;10.250;2022-07-23T09:14:40;6.78;;;5.90;;
8040;SDS011;4063;48.140;10.250;2022-07-23T09:17:13;7.15;;;6.07;;
8040;SDS011;4063;48.140;10.250;2022-07-23T09:19:40;10.30;;;6.05;;
8040;SDS011;4063;48.140;10.250;2022-07-23T09:22:19;9.15;;;6.32;;
8040;SDS011;4063;48.140;10.250;2022-07-23T09:30:11;7.03;;;6.35;;
8040;SDS011;4063;48.140;10.250;2022-07-23T09:32:37;8.77;;;7.05;;
8040;SDS011;4063;48.140;10.250;2022-07-23T09:35:03;7.80;;;7.10;;
8040;SDS011;4063;48.140;10.250;2022-07-23T09:37:29;7.15;;;6.50;;
8040;SDS011;4063;48.140;10.250;2022-07-23T09:40:02;7.32;;;6.30;;
8040;SDS011;4063;48.140;10.250;2022-07-23T09:42:29;11.13;;;6.30;;
8040;SDS011;4063;48.140;10.250;2022-07-23T09:44:56;8.32;;;6.47;;
8040;SDS011;4063;48.140;10.250;2022-07-23T09:47:23;6.95;;;5.88;;
8040;SDS011;4063;48.140;10.250;2022-07-23T09:50:03;6.88;;;6.20;;
8040;SDS011;4063;48.140;10.250;2022-07-23T09:52:32;8.68;;;6.25;;
8040;SDS011;4063;48.140;10.250;2022-07-23T09:54:59;7.32;;;6.57;;
8040;SDS011;4063;48.140;10.250;2022-07-23T09:57:26;7.47;;;6.20;;
8040;SDS011;4063;48.140;10.250;2022-07-23T09:59:52;7.70;;;6.68;;
8040;SDS011;4063;48.140;10.250;2022-07-23T10:02:18;7.32;;;6.63;;
8040;SDS011;4063;48.140;10.250;2022-07-23T10:04:45;7.68;;;6.97;;
8040;SDS011;4063;48.140;10.250;2022-07-23T10:07:11;7.50;;;6.90;;
8040;SDS011;4063;48.140;10.250;2022-07-23T10:09:39;7.95;;;6.70;;
8040;SDS011;4063;48.140;10.250;2022-07-23T10:12:12;8.18;;;7.20;;
8040;SDS011;4063;48.140;10.250;2022-07-23T10:14:57;7.65;;;6.85;;
8040;SDS011;4063;48.140;10.250;2022-07-23T10:17:24;7.05;;;6.35;;
8040;SDS011;4063;48.140;10.250;2022-07-23T10:19:50;7.72;;;6.53;;
8040;SDS011;4063;48.140;10.250;2022-07-23T10:22:19;7.70;;;6.72;;
8040;SDS011;4063;48.140;10.250;2022-07-23T10:25:00;7.38;;;6.63;;
8040;SDS011;4063;48.140;10.250;2022-07-23T10:27:32;7.47;;;6.47;;
8040;SDS011;4063;48.140;10.250;2022-07-23T10:30:04;7.03;;;6.43;;
8040;SDS011;4063;48.140;10.250;2022-07-23T10:32:37;7.00;;;6.30;;
8040;SDS011;4063;48.140;10.250;2022-07-23T10:37:34;7.63;;;6.82;;
8040;SDS011;4063;48.140;10.250;2022-07-23T10:40:08;7.30;;;5.95;;
8040;SDS011;4063;48.140;10.250;2022-07-23T10:42:35;7.85;;;6.15;;
8040;SDS011;4063;48.140;10.250;2022-07-23T10:45:01;6.75;;;6.15;;
8040;SDS011;4063;48.140;10.250;2022-07-23T10:47:47;7.57;;;6.35;;
8040;SDS011;4063;48.140;10.250;2022-07-23T10:50:17;7.70;;;6.25;;
8040;SDS011;4063;48.140;10.250;2022-07-23T10:53:07;7.75;;;6.60;;
8040;SDS011;4063;48.140;10.250;2022-07-23T10:57:55;7.85;;;6.68;;
8040;SDS011;4063;48.140;10.250;2022-07-23T11:00:22;7.07;;;6.18;;
8040;SDS011;4063;48.140;10.250;2022-07-23T11:02:49;7.03;;;6.32;;
8040;SDS011;4063;48.140;10.250;2022-07-23T11:05:17;7.95;;;6.82;;
8040;SDS011;4063;48.140;10.250;2022-07-23T11:10:35;6.88;;;6.20;;
8040;SDS011;4063;48.140;10.250;2022-07-23T11:24:00;6.97;;;6.40;;
8040;SDS011;4063;48.140;10.250;2022-07-23T11:37:49;8.00;;;7.30;;
8040;SDS011;4063;48.140;10.250;2022-07-23T11:39:52;7.22;;;6.50;;
8040;SDS011;4063;48.140;10.250;2022-07-23T11:42:19;8.25;;;7.15;;
8040;SDS011;4063;48.140;10.250;2022-07-23T11:44:46;7.25;;;6.55;;
8040;SDS011;4063;48.140;10.250;2022-07-23T11:47:12;7.45;;;6.78;;
8040;SDS011;4063;48.140;10.250;2022-07-23T11:49:38;6.65;;;5.82;;
8040;SDS011;4063;48.140;10.250;2022-07-23T11:52:11;7.00;;;6.38;;
8040;SDS011;4063;48.140;10.250;2022-07-23T11:54:48;6.75;;;5.68;;
8040;SDS011;4063;48.140;10.250;2022-07-23T11:57:15;6.18;;;5.60;;
8040;SDS011;4063;48.140;10.250;2022-07-23T11:59:41;6.97;;;6.30;;
8040;SDS011;4063;48.140;10.250;2022-07-23T12:02:08;6.57;;;5.97;;
8040;SDS011;4063;48.140;10.250;2022-07-23T12:09:50;7.25;;;5.82;;
8040;SDS011;4063;48.140;10.250;2022-07-23T12:12:17;5.93;;;5.40;;
8040;SDS011;4063;48.140;10.250;2022-07-23T12:17:18;6.88;;;6.22;;
8040;SDS011;4063;48.140;10.250;2022-07-23T12:19:45;7.03;;;6.47;;
8040;SDS011;4063;48.140;10.250;2022-07-23T12:22:11;7.20;;;6.43;;
8040;SDS011;4063;48.140;10.250;2022-07-23T12:27:24;9.82;;;7.40;;
8040;SDS011;4063;48.140;10.250;2022-07-23T12:29:50;7.25;;;6.63;;
8040;SDS011;4063;48.140;10.250;2022-07-23T12:32:20;7.72;;;6.97;;
8040;SDS011;4063;48.140;10.250;2022-07-23T12:34:50;9.38;;;7.07;;
8040;SDS011;4063;48.140;10.250;2022-07-23T12:37:30;8.90;;;7.60;;
8040;SDS011;4063;48.140;10.250;2022-07-23T12:39:57;7.60;;;6.90;;
8040;SDS011;4063;48.140;10.250;2022-07-23T12:42:23;8.05;;;7.35;;
8040;SDS011;4063;48.140;10.250;2022-07-23T12:45:05;8.80;;;7.60;;
8040;SDS011;4063;48.140;10.250;2022-07-23T12:47:49;8.32;;;7.53;;
8040;SDS011;4063;48.140;10.250;2022-07-23T12:53:04;7.90;;;6.93;;
8040;SDS011;4063;48.140;10.250;2022-07-23T12:55:30;8.07;;;7.38;;
8040;SDS011;4063;48.140;10.250;2022-07-23T12:58:38;8.13;;;6.95;;
8040;SDS011;4063;48.140;10.250;2022-07-23T13:00:49;7.72;;;7.03;;
8040;SDS011;4063;48.140;10.250;2022-07-23T13:03:21;6.72;;;6.13;;
8040;SDS011;4063;48.140;10.250;2022-07-23T13:05:48;8.88;;;7.97;;
8040;SDS011;4063;48.140;10.250;2022-07-23T13:08:14;8.05;;;7.35;;
8040;SDS011;4063;48.140;10.250;2022-07-23T13:10:40;8.63;;;7.82;;
8040;SDS011;4063;48.140;10.250;2022-07-23T13:13:09;7.45;;;6.85;;
8040;SDS011;4063;48.140;10.250;2022-07-23T13:15:35;7.65;;;6.90;;
8040;SDS011;4063;48.140;10.250;2022-07-23T13:18:02;7.93;;;7.15;;
8040;SDS011;4063;48.140;10.250;2022-07-23T13:20:28;7.45;;;6.72;;
8040;SDS011;4063;48.140;10.250;2022-07-23T13:22:56;7.70;;;6.60;;
8040;SDS011;4063;48.140;10.250;2022-07-23T13:25:22;7.60;;;6.90;;
8040;SDS011;4063;48.140;10.250;2022-07-23T13:27:48;9.48;;;6.07;;
8040;SDS011;4063;48.140;10.250;2022-07-23T13:30:14;6.65;;;6.05;;
8040;SDS011;4063;48.140;10.250;2022-07-23T13:32:40;7.70;;;6.75;;
8040;SDS011;4063;48.140;10.250;2022-07-23T13:35:08;8.15;;;7.25;;
8040;SDS011;4063;48.140;10.250;2022-07-23T13:37:34;7.53;;;6.75;;
8040;SDS011;4063;48.140;10.250;2022-07-23T13:40:00;7.88;;;7.15;;
8040;SDS011;4063;48.140;10.250;2022-07-23T13:42:26;6.57;;;5.97;;
8040;SDS011;4063;48.140;10.250;2022-07-23T13:44:52;6.80;;;6.30;;
8040;SDS011;4063;48.140;10.250;2022-07-23T13:47:18;6.88;;;6.28;;
8040;SDS011;4063;48.140;10.250;2022-07-23T13:49:45;6.65;;;6.05;;
8040;SDS011;4063;48.140;10.250;2022-07-23T13:52:11;6.18;;;5.68;;
8040;SDS011;4063;48.140;10.250;2022-07-23T13:54:37;6.35;;;5.47;;
8040;SDS011;4063;48.140;10.250;2022-07-23T13:57:03;6.45;;;5.85;;
8040;SDS011;4063;48.140;10.250;2022-07-23T13:59:29;6.57;;;5.95;;
8040;SDS011;4063;48.140;10.250;2022-07-23T14:01:55;6.82;;;6.22;;
8040;SDS011;4063;48.140;10.250;2022-07-23T14:04:21;6.25;;;5.75;;
8040;SDS011;4063;48.140;10.250;2022-07-23T14:06:47;6.65;;;5.97;;
8040;SDS011;4063;48.140;10.250;2022-07-23T14:09:13;5.82;;;5.32;;
8040;SDS011;4063;48.140;10.250;2022-07-23T14:11:40;7.32;;;6.70;;
8040;SDS011;4063;48.140;10.250;2022-07-23T14:14:06;7.18;;;6.47;;
8040;SDS011;4063;48.140;10.250;2022-07-23T14:16:32;6.88;;;5.85;;
8040;SDS011;4063;48.140;10.250;2022-07-23T14:18:58;6.10;;;5.60;;
8040;SDS011;4063;48.140;10.250;2022-07-23T14:21:24;5.55;;;5.15;;
8040;SDS011;4063;48.140;10.250;2022-07-23T14:23:50;6.40;;;5.50;;
8040;SDS011;4063;48.140;10.250;2022-07-23T14:26:16;6.47;;;5.80;;
8040;SDS011;4063;48.140;10.250;2022-07-23T14:28:42;5.80;;;5.30;;
8040;SDS011;4063;48.140;10.250;2022-07-23T14:31:08;8.43;;;6.10;;
8040;SDS011;4063;48.140;10.250;2022-07-23T14:33:34;6.38;;;5.80;;
8040;SDS011;4063;48.140;10.250;2022-07-23T14:36:00;6.78;;;6.15;;
8040;SDS011;4063;48.140;10.250;2022-07-23T14:38:26;6.82;;;6.22;;
8040;SDS011;4063;48.140;10.250;2022-07-23T14:40:52;6.57;;;5.78;;
8040;SDS011;4063;48.140;10.250;2022-07-23T14:43:18;6.75;;;6.25;;
8040;SDS011;4063;48.140;10.250;2022-07-23T14:45:44;7.03;;;6.35;;
8040;SDS011;4063;48.140;10.250;2022-07-23T14:48:10;7.40;;;6.70;;
8040;SDS011;4063;48.140;10.250;2022-07-23T14:50:36;7.30;;;5.85;;
8040;SDS011;4063;48.140;10.250;2022-07-23T14:53:02;8.10;;;7.40;;
8040;SDS011;4063;48.140;10.250;2022-07-23T14:55:30;5.70;;;4.82;;
8040;SDS011;4063;48.140;10.250;2022-07-23T14:57:56;4.05;;;3.75;;
8040;SDS011;4063;48.140;10.250;2022-07-23T15:00:22;4.22;;;3.72;;
8040;SDS011;4063;48.140;10.250;2022-07-23T15:02:48;6.03;;;3.13;;
8040;SDS011;4063;48.140;10.250;2022-07-23T15:05:14;5.18;;;3.25;;
8040;SDS011;4063;48.140;10.250;2022-07-23T15:07:40;3.78;;;3.10;;
8040;SDS011;4063;48.140;10.250;2022-07-23T15:10:06;6.38;;;3.22;;
8040;SDS011;4063;48.140;10.250;2022-07-23T15:12:32;3.55;;;3.25;;
8040;SDS011;4063;48.140;10.250;2022-07-23T15:14:58;3.88;;;3.20;;
8040;SDS011;4063;48.140;10.250;2022-07-23T15:17:24;3.30;;;3.00;;
8040;SDS011;4063;48.140;10.250;2022-07-23T15:19:51;4.05;;;3.70;;
8040;SDS011;4063;48.140;10.250;2022-07-23T15:22:17;4.38;;;3.92;;
8040;SDS011;4063;48.140;10.250;2022-07-23T15:24:43;5.57;;;3.75;;
8040;SDS011;4063;48.140;10.250;2022-07-23T15:27:09;4.05;;;3.45;;
8040;SDS011;4063;48.140;10.250;2022-07-23T15:29:35;4.55;;;4.15;;
8040;SDS011;4063;48.140;10.250;2022-07-23T15:32:01;4.22;;;3.47;;
8040;SDS011;4063;48.140;10.250;2022-07-23T15:34:27;3.78;;;3.10;;
8040;SDS011;4063;48.140;10.250;2022-07-23T15:36:54;3.45;;;3.25;;
8040;SDS011;4063;48.140;10.250;2022-07-23T15:39:20;3.22;;;2.92;;
8040;SDS011;4063;48.140;10.250;2022-07-23T15:41:46;3.65;;;3.30;;
8040;SDS011;4063;48.140;10.250;2022-07-23T15:44:12;3.70;;;2.97;;